sensor_id;sensor_type;location;lat;lon;timestamp;pressure;altitude;pressure_sealevel;temperature;humidity
84134;BME280;74235;48.688;9.708;2024-01-25T00:00:20;98727.06;;;22.20;40.52
84134;BME280;74235;48.688;9.708;2024-01-25T00:02:48;98727.91;;;22.20;40.35
84134;BME280;74235;48.688;9.708;2024-01-25T00:05:16;98719.78;;;22.20;41.83
84134;BME280;74235;48.688;9.708;2024-01-25T00:07:48;98726.28;;;22.19;40.50
84134;BME280;74235;48.688;9.708;2024-01-25T00:10:18;98718.41;;;22.18;40.85
84134;BME280;74235;48.688;9.708;2024-01-25T00:12:46;98714.88;;;22.17;41.64
84134;BME280;74235;48.688;9.708;2024-01-25T00:15:14;98716.81;;;22.17;41.33
84134;BME280;74235;48.688;9.708;2024-01-25T00:17:42;98717.59;;;22.17;41.33
84134;BME280;74235;48.688;9.708;2024-01-25T00:20:10;98713.00;;;22.18;41.63
84134;BME280;74235;48.688;9.708;2024-01-25T00:22:38;98699.47;;;22.13;41.88
84134;BME280;74235;48.688;9.708;2024-01-25T00:25:06;98696.78;;;22.18;41.28
84134;BME280;74235;48.688;9.708;2024-01-25T00:27:35;98689.75;;;22.17;40.80
84134;BME280;74235;48.688;9.708;2024-01-25T00:30:03;98693.50;;;22.16;40.96
84134;BME280;74235;48.688;9.708;2024-01-25T00:32:32;98685.38;;;22.16;40.17
84134;BME280;74235;48.688;9.708;2024-01-25T00:35:00;98693.50;;;22.16;40.18
84134;BME280;74235;48.688;9.708;2024-01-25T00:37:28;98687.31;;;22.15;40.26
84134;BME280;74235;48.688;9.708;2024-01-25T00:39:56;98680.81;;;22.16;41.08
84134;BME280;74235;48.688;9.708;2024-01-25T00:42:24;98682.69;;;22.16;40.55
84134;BME280;74235;48.688;9.708;2024-01-25T00:44:54;98686.47;;;22.15;40.21
84134;BME280;74235;48.688;9.708;2024-01-25T00:47:23;98682.94;;;22.14;41.09
84134;BME280;74235;48.688;9.708;2024-01-25T00:49:51;98688.09;;;22.16;40.35
84134;BME280;74235;48.688;9.708;2024-01-25T00:52:19;98704.31;;;22.16;41.67
84134;BME280;74235;48.688;9.708;2024-01-25T00:54:47;98693.50;;;22.16;41.21
84134;BME280;74235;48.688;9.708;2024-01-25T00:57:16;98695.69;;;22.14;41.75
84134;BME280;74235;48.688;9.708;2024-01-25T00:59:44;98700.25;;;22.13;40.39
84134;BME280;74235;48.688;9.708;2024-01-25T01:02:13;98700.00;;;22.15;41.52
84134;BME280;74235;48.688;9.708;2024-01-25T01:04:42;98701.09;;;22.14;40.78
84134;BME280;74235;48.688;9.708;2024-01-25T01:07:15;98701.09;;;22.14;40.26
84134;BME280;74235;48.688;9.708;2024-01-25T01:09:43;98694.06;;;22.13;40.82
84134;BME280;74235;48.688;9.708;2024-01-25T01:12:11;98691.34;;;22.13;40.74
84134;BME280;74235;48.688;9.708;2024-01-25T01:14:39;98696.75;;;22.13;40.06
84134;BME280;74235;48.688;9.708;2024-01-25T01:17:07;98698.66;;;22.12;40.54
84134;BME280;74235;48.688;9.708;2024-01-25T01:19:36;98698.66;;;22.12;40.20
84134;BME280;74235;48.688;9.708;2024-01-25T01:22:03;98695.13;;;22.12;41.51
84134;BME280;74235;48.688;9.708;2024-01-25T01:24:31;98700.53;;;22.12;41.82
84134;BME280;74235;48.688;9.708;2024-01-25T01:26:59;98692.66;;;22.10;40.89
84134;BME280;74235;48.688;9.708;2024-01-25T01:29:26;98691.63;;;22.11;40.14
84134;BME280;74235;48.688;9.708;2024-01-25T01:31:54;98688.09;;;22.11;40.52
84134;BME280;74235;48.688;9.708;2024-01-25T01:34:21;98689.16;;;22.10;41.88
84134;BME280;74235;48.688;9.708;2024-01-25T01:36:51;98694.59;;;22.10;40.33
84134;BME280;74235;48.688;9.708;2024-01-25T01:39:19;98688.34;;;22.09;41.19
84134;BME280;74235;48.688;9.708;2024-01-25T01:41:47;98683.75;;;22.10;41.95
84134;BME280;74235;48.688;9.708;2024-01-25T01:44:15;98686.47;;;22.10;41.34
84134;BME280;74235;48.688;9.708;2024-01-25T01:46:42;98682.09;;;22.09;40.51
84134;BME280;74235;48.688;9.708;2024-01-25T01:49:11;98687.25;;;22.10;41.76
84134;BME280;74235;48.688;9.708;2024-01-25T01:51:40;98682.09;;;22.09;40.65
84134;BME280;74235;48.688;9.708;2024-01-25T01:54:11;98682.09;;;22.09;40.69
84134;BME280;74235;48.688;9.708;2024-01-25T01:56:39;98692.66;;;22.10;41.14
84134;BME280;74235;48.688;9.708;2024-01-25T01:59:10;98708.13;;;22.10;40.95
84134;BME280;74235;48.688;9.708;2024-01-25T02:01:38;98702.13;;;22.08;41.17
84134;BME280;74235;48.688;9.708;2024-01-25T02:04:07;98705.66;;;22.08;41.11
84134;BME280;74235;48.688;9.708;2024-01-25T02:06:35;98703.75;;;22.09;40.22
84134;BME280;74235;48.688;9.708;2024-01-25T02:09:03;98710.25;;;22.08;41.65
84134;BME280;74235;48.688;9.708;2024-01-25T02:11:33;98712.97;;;22.08;41.66
84134;BME280;74235;48.688;9.708;2024-01-25T02:14:01;98721.06;;;22.08;40.56
84134;BME280;74235;48.688;9.708;2024-01-25T02:16:28;98719.19;;;22.08;40.34
84134;BME280;74235;48.688;9.708;2024-01-25T02:18:56;98721.06;;;22.08;40.03
84134;BME280;74235;48.688;9.708;2024-01-25T02:21:25;98712.16;;;22.07;41.09
84134;BME280;74235;48.688;9.708;2024-01-25T02:23:55;98704.31;;;22.06;41.46
84134;BME280;74235;48.688;9.708;2024-01-25T02:26:23;98697.81;;;22.07;41.75
84134;BME280;74235;48.688;9.708;2024-01-25T02:28:51;98695.09;;;22.07;40.20
84134;BME280;74235;48.688;9.708;2024-01-25T02:31:21;98709.47;;;22.07;40.54
84134;BME280;74235;48.688;9.708;2024-01-25T02:33:49;98708.63;;;22.07;41.63
84134;BME280;74235;48.688;9.708;2024-01-25T02:36:18;98714.03;;;22.07;40.32
84134;BME280;74235;48.688;9.708;2024-01-25T02:38:45;98703.47;;;22.05;40.40
84134;BME280;74235;48.688;9.708;2024-01-25T02:41:14;98704.31;;;22.06;41.61
84134;BME280;74235;48.688;9.708;2024-01-25T02:43:42;98715.94;;;22.06;41.44
84134;BME280;74235;48.688;9.708;2024-01-25T02:46:09;98714.31;;;22.05;41.82
84134;BME280;74235;48.688;9.708;2024-01-25T02:48:37;98717.28;;;22.04;41.04
84134;BME280;74235;48.688;9.708;2024-01-25T02:51:06;98701.03;;;22.04;41.75
84134;BME280;74235;48.688;9.708;2024-01-25T02:53:33;98702.13;;;22.03;41.36
84134;BME280;74235;48.688;9.708;2024-01-25T02:56:01;98707.53;;;22.03;41.13
84134;BME280;74235;48.688;9.708;2024-01-25T02:58:29;98706.44;;;22.04;40.09
84134;BME280;74235;48.688;9.708;2024-01-25T03:00:57;98703.75;;;22.04;41.48
84134;BME280;74235;48.688;9.708;2024-01-25T03:03:25;98696.72;;;22.03;41.68
84134;BME280;74235;48.688;9.708;2024-01-25T03:05:53;98697.81;;;22.02;40.12
84134;BME280;74235;48.688;9.708;2024-01-25T03:08:21;98703.22;;;22.02;40.00
84134;BME280;74235;48.688;9.708;2024-01-25T03:10:49;98710.25;;;22.03;40.24
84134;BME280;74235;48.688;9.708;2024-01-25T03:13:17;98707.53;;;22.03;41.42
84134;BME280;74235;48.688;9.708;2024-01-25T03:15:46;98716.44;;;22.03;41.21
84134;BME280;74235;48.688;9.708;2024-01-25T03:18:14;98708.63;;;22.02;40.35
84134;BME280;74235;48.688;9.708;2024-01-25T03:20:42;98705.91;;;22.02;41.41
84134;BME280;74235;48.688;9.708;2024-01-25T03:23:09;98704.00;;;22.02;40.48
84134;BME280;74235;48.688;9.708;2024-01-25T03:25:37;98712.38;;;22.01;40.17
84134;BME280;74235;48.688;9.708;2024-01-25T03:28:05;98726.47;;;22.03;40.12
84134;BME280;74235;48.688;9.708;2024-01-25T03:30:34;98726.47;;;22.03;40.23
84134;BME280;74235;48.688;9.708;2024-01-25T03:33:03;98719.44;;;22.02;40.97
84134;BME280;74235;48.688;9.708;2024-01-25T03:35:31;98734.84;;;22.01;41.41
84134;BME280;74235;48.688;9.708;2024-01-25T03:37:58;98734.84;;;22.01;40.59
84134;BME280;74235;48.688;9.708;2024-01-25T03:40:26;98730.28;;;22.02;40.65
84134;BME280;74235;48.688;9.708;2024-01-25T03:42:54;98732.97;;;22.02;41.52
84134;BME280;74235;48.688;9.708;2024-01-25T03:45:41;98742.97;;;22.01;40.73
84134;BME280;74235;48.688;9.708;2024-01-25T03:48:10;98739.44;;;22.01;40.70
84134;BME280;74235;48.688;9.708;2024-01-25T03:50:38;98744.84;;;22.01;41.36
84134;BME280;74235;48.688;9.708;2024-01-25T03:53:06;98744.84;;;22.01;41.56
84134;BME280;74235;48.688;9.708;2024-01-25T03:55:34;98744.06;;;22.00;41.68
84134;BME280;74235;48.688;9.708;2024-01-25T03:58:02;98751.34;;;22.00;41.70
84134;BME280;74235;48.688;9.708;2024-01-25T04:00:29;98748.63;;;22.00;41.22
84134;BME280;74235;48.688;9.708;2024-01-25T04:02:57;98754.06;;;22.00;39.96
84134;BME280;74235;48.688;9.708;2024-01-25T04:05:27;98759.47;;;22.00;41.35
84134;BME280;74235;48.688;9.708;2024-01-25T04:07:54;98755.66;;;22.01;40.79
84134;BME280;74235;48.688;9.708;2024-01-25T04:10:22;98754.06;;;22.00;40.46
84134;BME280;74235;48.688;9.708;2024-01-25T04:12:50;98759.47;;;22.00;41.07
84134;BME280;74235;48.688;9.708;2024-01-25T04:15:22;98756.19;;;21.98;41.77
84134;BME280;74235;48.688;9.708;2024-01-25T04:17:50;98757.84;;;21.99;41.17
84134;BME280;74235;48.688;9.708;2024-01-25T04:20:17;98751.34;;;22.00;40.75
84134;BME280;74235;48.688;9.708;2024-01-25T04:22:47;98749.72;;;21.99;40.44
84134;BME280;74235;48.688;9.708;2024-01-25T04:25:15;98757.84;;;21.99;41.65
84134;BME280;74235;48.688;9.708;2024-01-25T04:27:43;98763.50;;;21.97;40.28
84134;BME280;74235;48.688;9.708;2024-01-25T04:30:11;98766.75;;;21.99;41.61
84134;BME280;74235;48.688;9.708;2024-01-25T04:32:39;98768.66;;;21.99;41.57
84134;BME280;74235;48.688;9.708;2024-01-25T04:35:08;98762.16;;;22.00;40.86
84134;BME280;74235;48.688;9.708;2024-01-25T04:37:36;98755.13;;;21.99;40.23
84134;BME280;74235;48.688;9.708;2024-01-25T04:40:05;98756.75;;;22.00;41.65
84134;BME280;74235;48.688;9.708;2024-01-25T04:42:33;98761.59;;;21.98;41.35
84134;BME280;74235;48.688;9.708;2024-01-25T04:45:01;98760.53;;;21.99;40.06
84134;BME280;74235;48.688;9.708;2024-01-25T04:47:29;98771.63;;;21.97;40.46
84134;BME280;74235;48.688;9.708;2024-01-25T04:49:56;98767.00;;;21.98;40.43
84134;BME280;74235;48.688;9.708;2024-01-25T04:52:25;98780.28;;;21.99;41.47
84134;BME280;74235;48.688;9.708;2024-01-25T04:54:52;98774.34;;;21.97;40.43
84134;BME280;74235;48.688;9.708;2024-01-25T04:57:22;98788.66;;;21.98;40.48
84134;BME280;74235;48.688;9.708;2024-01-25T04:59:49;98783.25;;;21.98;39.88
84134;BME280;74235;48.688;9.708;2024-01-25T05:02:17;98785.94;;;21.98;40.11
84134;BME280;74235;48.688;9.708;2024-01-25T05:04:45;98783.25;;;21.98;41.22
84134;BME280;74235;48.688;9.708;2024-01-25T05:07:13;98788.66;;;21.98;40.15
84134;BME280;74235;48.688;9.708;2024-01-25T05:09:41;98796.78;;;21.98;41.31
84134;BME280;74235;48.688;9.708;2024-01-25T05:12:08;98799.75;;;21.96;41.75
84134;BME280;74235;48.688;9.708;2024-01-25T05:14:38;98787.03;;;21.97;41.60
84134;BME280;74235;48.688;9.708;2024-01-25T05:17:06;98790.56;;;21.97;40.24
84134;BME280;74235;48.688;9.708;2024-01-25T05:19:33;98780.00;;;21.96;40.32
84134;BME280;74235;48.688;9.708;2024-01-25T05:22:01;98787.03;;;21.97;40.45
84134;BME280;74235;48.688;9.708;2024-01-25T05:24:33;98788.13;;;21.96;41.20
84134;BME280;74235;48.688;9.708;2024-01-25T05:27:01;98793.53;;;21.96;41.42
84134;BME280;74235;48.688;9.708;2024-01-25T05:29:29;98804.34;;;21.96;41.41
84134;BME280;74235;48.688;9.708;2024-01-25T05:31:59;98800.56;;;21.97;41.19
84134;BME280;74235;48.688;9.708;2024-01-25T05:34:26;98796.22;;;21.96;41.30
84134;BME280;74235;48.688;9.708;2024-01-25T05:36:54;98793.53;;;21.96;39.79
84134;BME280;74235;48.688;9.708;2024-01-25T05:39:22;98801.66;;;21.96;41.67
84134;BME280;74235;48.688;9.708;2024-01-25T05:41:49;98797.84;;;21.97;40.57
84134;BME280;74235;48.688;9.708;2024-01-25T05:44:17;98807.06;;;21.96;40.62
84134;BME280;74235;48.688;9.708;2024-01-25T05:46:44;98808.94;;;21.95;41.76
84134;BME280;74235;48.688;9.708;2024-01-25T05:49:13;98810.84;;;21.95;41.41
84134;BME280;74235;48.688;9.708;2024-01-25T05:51:41;98816.25;;;21.95;41.50
84134;BME280;74235;48.688;9.708;2024-01-25T05:54:09;98814.59;;;21.94;41.43
84134;BME280;74235;48.688;9.708;2024-01-25T05:56:37;98814.59;;;21.94;41.41
84134;BME280;74235;48.688;9.708;2024-01-25T05:59:04;98820.84;;;21.94;40.28
84134;BME280;74235;48.688;9.708;2024-01-25T06:01:32;98827.06;;;21.95;41.65
84134;BME280;74235;48.688;9.708;2024-01-25T06:03:59;98830.84;;;21.94;40.92
84134;BME280;74235;48.688;9.708;2024-01-25T06:06:29;98831.66;;;21.94;40.60
84134;BME280;74235;48.688;9.708;2024-01-25T06:08:56;98832.47;;;21.95;40.95
84134;BME280;74235;48.688;9.708;2024-01-25T06:11:38;98831.66;;;21.94;40.47
84134;BME280;74235;48.688;9.708;2024-01-25T06:14:06;98835.19;;;21.95;40.55
84134;BME280;74235;48.688;9.708;2024-01-25T06:16:33;98832.75;;;21.93;41.32
84134;BME280;74235;48.688;9.708;2024-01-25T06:19:02;98831.66;;;21.94;40.63
84134;BME280;74235;48.688;9.708;2024-01-25T06:21:31;98838.94;;;21.94;40.22
84134;BME280;74235;48.688;9.708;2024-01-25T06:24:01;98837.31;;;21.93;40.65
84134;BME280;74235;48.688;9.708;2024-01-25T06:26:29;98848.97;;;21.93;40.00
84134;BME280;74235;48.688;9.708;2024-01-25T06:28:57;98839.22;;;21.92;41.12
84134;BME280;74235;48.688;9.708;2024-01-25T06:31:25;98849.75;;;21.94;41.66
84134;BME280;74235;48.688;9.708;2024-01-25T06:33:53;98841.13;;;21.92;40.42
84134;BME280;74235;48.688;9.708;2024-01-25T06:36:21;98838.16;;;21.93;39.94
84134;BME280;74235;48.688;9.708;2024-01-25T06:38:50;98836.53;;;21.92;40.15
84134;BME280;74235;48.688;9.708;2024-01-25T06:41:18;98839.22;;;21.92;40.64
84134;BME280;74235;48.688;9.708;2024-01-25T06:43:46;98839.22;;;21.92;40.13
84134;BME280;74235;48.688;9.708;2024-01-25T06:46:14;98839.22;;;21.92;41.08
84134;BME280;74235;48.688;9.708;2024-01-25T06:48:42;98833.81;;;21.92;41.52
84134;BME280;74235;48.688;9.708;2024-01-25T06:51:10;98833.00;;;21.92;41.14
84134;BME280;74235;48.688;9.708;2024-01-25T06:53:37;98831.91;;;21.93;40.37
84134;BME280;74235;48.688;9.708;2024-01-25T06:56:06;98826.75;;;21.91;40.72
84134;BME280;74235;48.688;9.708;2024-01-25T06:58:34;98835.69;;;21.92;41.35
84134;BME280;74235;48.688;9.708;2024-01-25T07:01:02;98838.41;;;21.92;41.52
84134;BME280;74235;48.688;9.708;2024-01-25T07:03:32;98843.00;;;21.91;40.52
84134;BME280;74235;48.688;9.708;2024-01-25T07:06:00;98848.16;;;21.93;41.67
84134;BME280;74235;48.688;9.708;2024-01-25T07:08:28;98846.78;;;21.90;40.28
84134;BME280;74235;48.688;9.708;2024-01-25T07:10:55;98854.06;;;21.90;40.23
84134;BME280;74235;48.688;9.708;2024-01-25T07:13:25;98864.09;;;21.89;41.40
84134;BME280;74235;48.688;9.708;2024-01-25T07:15:53;98866.81;;;21.94;40.61
84134;BME280;74235;48.688;9.708;2024-01-25T07:18:20;98863.34;;;21.99;41.78
84134;BME280;74235;48.688;9.708;2024-01-25T07:20:50;98851.16;;;21.96;42.27
84134;BME280;74235;48.688;9.708;2024-01-25T07:23:18;98860.94;;;22.02;41.97
84134;BME280;74235;48.688;9.708;2024-01-25T07:25:46;98866.31;;;21.97;42.06
84134;BME280;74235;48.688;9.708;2024-01-25T07:28:13;98872.25;;;21.99;40.56
84134;BME280;74235;48.688;9.708;2024-01-25T07:30:43;98878.50;;;22.00;41.73
84134;BME280;74235;48.688;9.708;2024-01-25T07:33:10;98880.13;;;22.01;41.47
84134;BME280;74235;48.688;9.708;2024-01-25T07:35:39;98883.94;;;22.05;41.16
84134;BME280;74235;48.688;9.708;2024-01-25T07:38:13;98886.13;;;22.08;41.09
84134;BME280;74235;48.688;9.708;2024-01-25T07:40:40;98875.56;;;22.06;42.33
84134;BME280;74235;48.688;9.708;2024-01-25T07:43:08;98873.69;;;22.07;42.64
84134;BME280;74235;48.688;9.708;2024-01-25T07:45:36;98878.06;;;22.13;42.01
84134;BME280;74235;48.688;9.708;2024-01-25T07:48:05;98876.47;;;22.17;41.01
84134;BME280;74235;48.688;9.708;2024-01-25T07:50:41;98880.78;;;22.18;41.92
84134;BME280;74235;48.688;9.708;2024-01-25T07:53:10;98884.31;;;22.18;41.69
84134;BME280;74235;48.688;9.708;2024-01-25T07:55:39;98885.69;;;22.21;41.24
84134;BME280;74235;48.688;9.708;2024-01-25T07:58:07;98905.19;;;22.23;41.19
84134;BME280;74235;48.688;9.708;2024-01-25T08:00:35;98888.13;;;22.22;42.83
84134;BME280;74235;48.688;9.708;2024-01-25T08:03:03;98894.91;;;22.25;41.50
84134;BME280;74235;48.688;9.708;2024-01-25T08:05:33;98893.56;;;22.27;42.97
84134;BME280;74235;48.688;9.708;2024-01-25T08:08:14;98892.50;;;22.28;42.37
84134;BME280;74235;48.688;9.708;2024-01-25T08:10:41;98894.13;;;22.29;41.26
84134;BME280;74235;48.688;9.708;2024-01-25T08:13:15;98888.19;;;22.32;41.30
84134;BME280;74235;48.688;9.708;2024-01-25T08:15:42;98891.72;;;22.33;42.95
84134;BME280;74235;48.688;9.708;2024-01-25T08:18:10;98896.03;;;22.34;42.60
84134;BME280;74235;48.688;9.708;2024-01-25T08:20:39;98901.47;;;22.34;42.92
84134;BME280;74235;48.688;9.708;2024-01-25T08:23:08;98911.19;;;22.35;42.07
84134;BME280;74235;48.688;9.708;2024-01-25T08:25:36;98917.19;;;22.37;41.78
84134;BME280;74235;48.688;9.708;2024-01-25T08:28:04;98915.78;;;22.29;41.21
84134;BME280;74235;48.688;9.708;2024-01-25T08:30:33;98919.28;;;22.25;40.74
84134;BME280;74235;48.688;9.708;2024-01-25T08:33:01;98924.19;;;22.28;41.05
84134;BME280;74235;48.688;9.708;2024-01-25T08:35:28;98918.75;;;22.28;40.76
84134;BME280;74235;48.688;9.708;2024-01-25T08:37:59;98911.19;;;22.30;41.11
84134;BME280;74235;48.688;9.708;2024-01-25T08:40:27;98905.25;;;22.33;42.04
84134;BME280;74235;48.688;9.708;2024-01-25T08:42:57;98911.75;;;22.32;40.72
84134;BME280;74235;48.688;9.708;2024-01-25T08:45:25;98907.38;;;22.31;42.02
84134;BME280;74235;48.688;9.708;2024-01-25T08:47:53;98913.38;;;22.33;41.00
84134;BME280;74235;48.688;9.708;2024-01-25T08:50:20;98915.31;;;22.37;41.26
84134;BME280;74235;48.688;9.708;2024-01-25T08:52:51;98912.84;;;22.36;41.87
84134;BME280;74235;48.688;9.708;2024-01-25T08:55:20;98910.94;;;22.36;41.10
84134;BME280;74235;48.688;9.708;2024-01-25T08:57:49;98912.03;;;22.35;42.70
84134;BME280;74235;48.688;9.708;2024-01-25T09:00:18;98916.84;;;22.28;42.27
84134;BME280;74235;48.688;9.708;2024-01-25T09:02:48;98934.47;;;22.31;40.84
84134;BME280;74235;48.688;9.708;2024-01-25T09:05:16;98934.78;;;22.34;40.61
84134;BME280;74235;48.688;9.708;2024-01-25T09:07:44;98931.81;;;22.36;40.92
84134;BME280;74235;48.688;9.708;2024-01-25T09:10:12;98955.09;;;22.37;40.92
84134;BME280;74235;48.688;9.708;2024-01-25T09:12:42;98950.50;;;22.37;42.40
84134;BME280;74235;48.688;9.708;2024-01-25T09:15:09;98942.63;;;22.36;42.29
84134;BME280;74235;48.688;9.708;2024-01-25T09:17:37;98950.75;;;22.36;41.55
84134;BME280;74235;48.688;9.708;2024-01-25T09:20:06;98949.66;;;22.37;41.53
84134;BME280;74235;48.688;9.708;2024-01-25T09:22:35;98948.81;;;22.31;42.32
84134;BME280;74235;48.688;9.708;2024-01-25T09:25:02;98949.06;;;22.25;41.08
84134;BME280;74235;48.688;9.708;2024-01-25T09:27:32;98954.97;;;22.22;40.91
84134;BME280;74235;48.688;9.708;2024-01-25T09:30:02;98960.34;;;22.17;40.88
84134;BME280;74235;48.688;9.708;2024-01-25T09:32:30;98956.78;;;22.11;41.15
84134;BME280;74235;48.688;9.708;2024-01-25T09:34:58;98966.78;;;22.11;39.90
84134;BME280;74235;48.688;9.708;2024-01-25T09:37:26;98971.09;;;22.07;41.02
84134;BME280;74235;48.688;9.708;2024-01-25T09:39:54;98966.75;;;22.06;39.54
84134;BME280;74235;48.688;9.708;2024-01-25T09:42:22;98965.91;;;22.00;38.84
84134;BME280;74235;48.688;9.708;2024-01-25T09:44:52;98970.44;;;21.95;40.47
84134;BME280;74235;48.688;9.708;2024-01-25T09:47:23;98972.59;;;21.93;39.00
84134;BME280;74235;48.688;9.708;2024-01-25T09:49:51;98979.53;;;21.84;39.68
84134;BME280;74235;48.688;9.708;2024-01-25T09:52:21;98980.50;;;21.73;39.36
84134;BME280;74235;48.688;9.708;2024-01-25T09:54:53;98980.97;;;21.70;39.53
84134;BME280;74235;48.688;9.708;2024-01-25T09:57:24;98980.97;;;21.70;39.51
84134;BME280;74235;48.688;9.708;2024-01-25T09:59:55;98980.75;;;21.71;39.67
84134;BME280;74235;48.688;9.708;2024-01-25T10:02:24;98988.88;;;21.71;39.21
84134;BME280;74235;48.688;9.708;2024-01-25T10:04:52;98983.47;;;21.71;39.61
84134;BME280;74235;48.688;9.708;2024-01-25T10:07:36;98980.94;;;21.65;39.07
84134;BME280;74235;48.688;9.708;2024-01-25T10:10:05;98979.88;;;21.66;39.02
84134;BME280;74235;48.688;9.708;2024-01-25T10:12:34;98983.13;;;21.68;39.45
84134;BME280;74235;48.688;9.708;2024-01-25T10:15:03;98981.50;;;21.67;40.17
84134;BME280;74235;48.688;9.708;2024-01-25T10:17:33;98983.69;;;21.70;39.51
84134;BME280;74235;48.688;9.708;2024-01-25T10:20:20;98982.75;;;21.81;39.64
84134;BME280;74235;48.688;9.708;2024-01-25T10:22:52;98976.00;;;21.83;40.07
84134;BME280;74235;48.688;9.708;2024-01-25T10:25:25;98971.94;;;21.81;40.68
84134;BME280;74235;48.688;9.708;2024-01-25T10:27:53;98975.19;;;21.83;41.16
84134;BME280;74235;48.688;9.708;2024-01-25T10:30:21;98972.47;;;21.83;41.17
84134;BME280;74235;48.688;9.708;2024-01-25T10:32:51;98977.63;;;21.84;40.63
84134;BME280;74235;48.688;9.708;2024-01-25T10:35:20;98975.75;;;21.85;40.68
84134;BME280;74235;48.688;9.708;2024-01-25T10:37:52;98962.50;;;21.83;40.83
84134;BME280;74235;48.688;9.708;2024-01-25T10:40:21;98961.97;;;21.86;40.02
84134;BME280;74235;48.688;9.708;2024-01-25T10:42:50;98947.94;;;21.89;42.15
84134;BME280;74235;48.688;9.708;2024-01-25T10:45:19;98953.66;;;21.93;41.74
84134;BME280;74235;48.688;9.708;2024-01-25T10:47:48;98956.38;;;21.98;41.25
84134;BME280;74235;48.688;9.708;2024-01-25T10:50:17;98951.53;;;22.00;41.89
84134;BME280;74235;48.688;9.708;2024-01-25T10:52:46;98952.13;;;22.02;42.18
84134;BME280;74235;48.688;9.708;2024-01-25T10:55:15;98954.28;;;22.05;40.31
84134;BME280;74235;48.688;9.708;2024-01-25T10:57:45;98938.88;;;22.05;41.03
84134;BME280;74235;48.688;9.708;2024-01-25T11:00:15;98944.03;;;22.07;41.81
84134;BME280;74235;48.688;9.708;2024-01-25T11:02:44;98936.16;;;22.05;41.92
84134;BME280;74235;48.688;9.708;2024-01-25T11:05:13;98938.03;;;22.05;41.38
84134;BME280;74235;48.688;9.708;2024-01-25T11:07:44;98927.75;;;22.02;40.49
84134;BME280;74235;48.688;9.708;2024-01-25T11:10:14;98926.13;;;22.01;40.25
84134;BME280;74235;48.688;9.708;2024-01-25T11:12:50;98919.59;;;21.97;40.14
84134;BME280;74235;48.688;9.708;2024-01-25T11:15:21;98913.63;;;21.95;40.45
84134;BME280;74235;48.688;9.708;2024-01-25T11:17:56;98911.19;;;21.93;41.00
84134;BME280;74235;48.688;9.708;2024-01-25T11:20:24;98909.81;;;21.91;40.15
84134;BME280;74235;48.688;9.708;2024-01-25T11:22:58;98909.00;;;21.90;39.81
84134;BME280;74235;48.688;9.708;2024-01-25T11:25:29;98904.66;;;21.89;39.63
84134;BME280;74235;48.688;9.708;2024-01-25T11:27:58;98903.84;;;21.89;39.76
84134;BME280;74235;48.688;9.708;2024-01-25T11:30:26;98893.03;;;21.89;40.39
84134;BME280;74235;48.688;9.708;2024-01-25T11:32:54;98890.31;;;21.89;40.73
84134;BME280;74235;48.688;9.708;2024-01-25T11:35:22;98884.66;;;21.90;39.69
84134;BME280;74235;48.688;9.708;2024-01-25T11:37:53;98885.47;;;21.91;39.14
84134;BME280;74235;48.688;9.708;2024-01-25T11:40:22;98883.03;;;21.89;40.26
84134;BME280;74235;48.688;9.708;2024-01-25T11:42:50;98880.31;;;21.89;39.86
84134;BME280;74235;48.688;9.708;2024-01-25T11:45:18;98890.88;;;21.91;40.57
84134;BME280;74235;48.688;9.708;2024-01-25T11:47:46;98890.88;;;21.91;40.42
84134;BME280;74235;48.688;9.708;2024-01-25T11:50:14;98889.28;;;21.95;40.61
84134;BME280;74235;48.688;9.708;2024-01-25T11:52:42;98881.78;;;22.02;40.11
84134;BME280;74235;48.688;9.708;2024-01-25T11:55:10;98883.94;;;22.05;40.83
84134;BME280;74235;48.688;9.708;2024-01-25T11:57:40;98877.47;;;22.06;40.48
84134;BME280;74235;48.688;9.708;2024-01-25T12:00:13;98879.09;;;22.07;40.68
84134;BME280;74235;48.688;9.708;2024-01-25T12:02:42;98875.31;;;22.08;40.03
84134;BME280;74235;48.688;9.708;2024-01-25T12:05:10;98873.44;;;22.08;41.26
84134;BME280;74235;48.688;9.708;2024-01-25T12:07:39;98861.00;;;22.12;39.98
84134;BME280;74235;48.688;9.708;2024-01-25T12:10:10;98865.59;;;22.12;40.94
84134;BME280;74235;48.688;9.708;2024-01-25T12:12:44;98856.41;;;22.13;40.38
84134;BME280;74235;48.688;9.708;2024-01-25T12:15:12;98856.41;;;22.13;41.30
84134;BME280;74235;48.688;9.708;2024-01-25T12:17:39;98856.13;;;22.14;41.68
84134;BME280;74235;48.688;9.708;2024-01-25T12:20:11;98852.63;;;22.14;40.10
84134;BME280;74235;48.688;9.708;2024-01-25T12:22:40;98852.63;;;22.14;40.46
84134;BME280;74235;48.688;9.708;2024-01-25T12:25:08;98853.41;;;22.14;41.06
84134;BME280;74235;48.688;9.708;2024-01-25T12:27:41;98855.88;;;22.16;40.31
84134;BME280;74235;48.688;9.708;2024-01-25T12:30:11;98852.63;;;22.14;41.63
84134;BME280;74235;48.688;9.708;2024-01-25T12:32:39;98838.00;;;22.15;40.57
84134;BME280;74235;48.688;9.708;2024-01-25T12:35:07;98841.28;;;22.17;40.04
84134;BME280;74235;48.688;9.708;2024-01-25T12:37:36;98835.88;;;22.17;40.56
84134;BME280;74235;48.688;9.708;2024-01-25T12:40:06;98843.72;;;22.18;41.01
84134;BME280;74235;48.688;9.708;2024-01-25T12:42:34;98842.91;;;22.18;40.01
84134;BME280;74235;48.688;9.708;2024-01-25T12:45:02;98836.38;;;22.14;40.70
84134;BME280;74235;48.688;9.708;2024-01-25T12:47:32;98830.94;;;22.09;40.56
84134;BME280;74235;48.688;9.708;2024-01-25T12:50:00;98819.56;;;22.07;40.94
84134;BME280;74235;48.688;9.708;2024-01-25T12:52:29;98819.56;;;22.07;41.34
84134;BME280;74235;48.688;9.708;2024-01-25T12:54:57;98820.41;;;22.07;41.50
84134;BME280;74235;48.688;9.708;2024-01-25T12:57:24;98821.75;;;22.10;41.69
84134;BME280;74235;48.688;9.708;2024-01-25T12:59:52;98830.97;;;22.14;40.87
84134;BME280;74235;48.688;9.708;2024-01-25T13:02:20;98822.28;;;22.12;41.20
84134;BME280;74235;48.688;9.708;2024-01-25T13:04:49;98816.38;;;22.15;40.95
84134;BME280;74235;48.688;9.708;2024-01-25T13:07:20;98829.06;;;22.14;40.81